sensor_id;sensor_type;location;lat;lon;timestamp;P1;durP1;ratioP1;P2;durP2;ratioP2
209;SDS011;90;48.810;9.120;2022-10-18T00:01:33;13.33;;;8.20;;
209;SDS011;90;48.810;9.120;2022-10-18T00:04:00;10.53;;;7.70;;
209;SDS011;90;48.810;9.120;2022-10-18T00:06:28;18.50;;;7.57;;
209;SDS011;90;48.810;9.120;2022-10-18T00:08:57;17.13;;;8.23;;
209;SDS011;90;48.810;9.120;2022-10-18T00:11:27;12.20;;;7.90;;
209;SDS011;90;48.810;9.120;2022-10-18T00:13:56;12.10;;;7.03;;
209;SDS011;90;48.810;9.120;2022-10-18T00:16:24;14.57;;;8.10;;
209;SDS011;90;48.810;9.120;2022-10-18T00:18:51;14.70;;;8.20;;
209;SDS011;90;48.810;9.120;2022-10-18T00:21:19;16.37;;;7.43;;
209;SDS011;90;48.810;9.120;2022-10-18T00:23:52;24.70;;;8.13;;
209;SDS011;90;48.810;9.120;2022-10-18T00:26:22;11.27;;;7.40;;
209;SDS011;90;48.810;9.120;2022-10-18T00:28:52;11.40;;;7.53;;
209;SDS011;90;48.810;9.120;2022-10-18T00:31:22;9.60;;;7.40;;
209;SDS011;90;48.810;9.120;2022-10-18T00:33:52;11.87;;;8.40;;
209;SDS011;90;48.810;9.120;2022-10-18T00:36:21;18.13;;;8.23;;
209;SDS011;90;48.810;9.120;2022-10-18T00:38:48;14.47;;;8.13;;
209;SDS011;90;48.810;9.120;2022-10-18T00:41:17;11.00;;;7.63;;
209;SDS011;90;48.810;9.120;2022-10-18T00:43:49;12.90;;;7.87;;
209;SDS011;90;48.810;9.120;2022-10-18T00:46:25;22.03;;;8.00;;
209;SDS011;90;48.810;9.120;2022-10-18T00:48:55;19.83;;;8.43;;
209;SDS011;90;48.810;9.120;2022-10-18T00:51:32;21.10;;;8.53;;
209;SDS011;90;48.810;9.120;2022-10-18T00:54:03;21.53;;;8.60;;
209;SDS011;90;48.810;9.120;2022-10-18T00:56:30;11.90;;;8.50;;
209;SDS011;90;48.810;9.120;2022-10-18T00:58:59;20.10;;;8.70;;
209;SDS011;90;48.810;9.120;2022-10-18T01:01:27;18.88;;;8.30;;
209;SDS011;90;48.810;9.120;2022-10-18T01:03:55;21.07;;;8.20;;
209;SDS011;90;48.810;9.120;2022-10-18T01:06:22;14.13;;;8.10;;
209;SDS011;90;48.810;9.120;2022-10-18T01:08:56;17.63;;;9.00;;
209;SDS011;90;48.810;9.120;2022-10-18T01:11:35;14.17;;;9.13;;
209;SDS011;90;48.810;9.120;2022-10-18T01:14:18;16.13;;;8.20;;
209;SDS011;90;48.810;9.120;2022-10-18T01:17:02;14.10;;;7.77;;
209;SDS011;90;48.810;9.120;2022-10-18T01:19:50;21.30;;;8.70;;
209;SDS011;90;48.810;9.120;2022-10-18T01:22:30;22.53;;;8.37;;
209;SDS011;90;48.810;9.120;2022-10-18T01:25:05;15.50;;;7.67;;
209;SDS011;90;48.810;9.120;2022-10-18T01:27:49;15.07;;;7.90;;
209;SDS011;90;48.810;9.120;2022-10-18T01:33:27;10.53;;;7.93;;
209;SDS011;90;48.810;9.120;2022-10-18T01:35:59;14.60;;;7.80;;
209;SDS011;90;48.810;9.120;2022-10-18T01:38:32;11.30;;;8.20;;
209;SDS011;90;48.810;9.120;2022-10-18T01:41:02;14.13;;;7.70;;
209;SDS011;90;48.810;9.120;2022-10-18T01:43:32;10.00;;;7.20;;
209;SDS011;90;48.810;9.120;2022-10-18T01:46:06;12.00;;;7.80;;
209;SDS011;90;48.810;9.120;2022-10-18T01:48:34;15.63;;;7.07;;
209;SDS011;90;48.810;9.120;2022-10-18T01:51:03;11.83;;;7.03;;
209;SDS011;90;48.810;9.120;2022-10-18T01:53:31;18.33;;;7.43;;
209;SDS011;90;48.810;9.120;2022-10-18T01:59:01;15.63;;;7.80;;
209;SDS011;90;48.810;9.120;2022-10-18T02:01:42;14.27;;;7.50;;
209;SDS011;90;48.810;9.120;2022-10-18T02:04:19;11.80;;;7.50;;
209;SDS011;90;48.810;9.120;2022-10-18T02:07:00;13.93;;;7.70;;
209;SDS011;90;48.810;9.120;2022-10-18T02:09:36;10.60;;;8.00;;
209;SDS011;90;48.810;9.120;2022-10-18T02:12:10;20.00;;;8.30;;
209;SDS011;90;48.810;9.120;2022-10-18T02:14:40;17.50;;;8.60;;
209;SDS011;90;48.810;9.120;2022-10-18T02:17:10;16.80;;;7.67;;
209;SDS011;90;48.810;9.120;2022-10-18T02:19:39;12.40;;;7.50;;
209;SDS011;90;48.810;9.120;2022-10-18T02:22:10;10.03;;;7.37;;
209;SDS011;90;48.810;9.120;2022-10-18T02:24:38;11.67;;;7.80;;
209;SDS011;90;48.810;9.120;2022-10-18T02:27:08;9.63;;;7.50;;
209;SDS011;90;48.810;9.120;2022-10-18T02:29:35;14.57;;;7.13;;
209;SDS011;90;48.810;9.120;2022-10-18T02:32:04;14.03;;;7.47;;
209;SDS011;90;48.810;9.120;2022-10-18T02:34:36;11.57;;;7.90;;
209;SDS011;90;48.810;9.120;2022-10-18T02:37:06;17.00;;;7.73;;
209;SDS011;90;48.810;9.120;2022-10-18T02:39:36;17.80;;;7.40;;
209;SDS011;90;48.810;9.120;2022-10-18T02:42:09;8.73;;;7.70;;
209;SDS011;90;48.810;9.120;2022-10-18T02:44:37;14.73;;;8.03;;
209;SDS011;90;48.810;9.120;2022-10-18T02:47:05;12.37;;;7.53;;
209;SDS011;90;48.810;9.120;2022-10-18T02:49:33;15.00;;;8.10;;
209;SDS011;90;48.810;9.120;2022-10-18T02:52:02;10.80;;;7.57;;
209;SDS011;90;48.810;9.120;2022-10-18T02:54:30;14.13;;;7.93;;
209;SDS011;90;48.810;9.120;2022-10-18T02:56:57;16.57;;;8.30;;
209;SDS011;90;48.810;9.120;2022-10-18T02:59:24;9.20;;;7.00;;
209;SDS011;90;48.810;9.120;2022-10-18T03:01:51;11.63;;;6.83;;
209;SDS011;90;48.810;9.120;2022-10-18T03:04:19;9.20;;;7.23;;
209;SDS011;90;48.810;9.120;2022-10-18T03:06:46;11.53;;;6.40;;
209;SDS011;90;48.810;9.120;2022-10-18T03:09:14;11.30;;;6.63;;
209;SDS011;90;48.810;9.120;2022-10-18T03:11:42;10.27;;;6.63;;
209;SDS011;90;48.810;9.120;2022-10-18T03:14:12;13.60;;;7.00;;
209;SDS011;90;48.810;9.120;2022-10-18T03:16:39;12.00;;;7.87;;
209;SDS011;90;48.810;9.120;2022-10-18T03:19:06;12.60;;;6.57;;
209;SDS011;90;48.810;9.120;2022-10-18T03:21:33;14.30;;;7.77;;
209;SDS011;90;48.810;9.120;2022-10-18T03:24:00;7.43;;;7.03;;
209;SDS011;90;48.810;9.120;2022-10-18T03:26:29;10.13;;;7.30;;
209;SDS011;90;48.810;9.120;2022-10-18T03:28:57;11.30;;;7.13;;
209;SDS011;90;48.810;9.120;2022-10-18T03:31:24;11.43;;;6.70;;
209;SDS011;90;48.810;9.120;2022-10-18T03:33:51;8.30;;;6.30;;
209;SDS011;90;48.810;9.120;2022-10-18T03:36:18;9.37;;;5.70;;
209;SDS011;90;48.810;9.120;2022-10-18T03:38:45;8.43;;;5.50;;
209;SDS011;90;48.810;9.120;2022-10-18T03:41:12;9.40;;;5.50;;
209;SDS011;90;48.810;9.120;2022-10-18T03:43:41;12.07;;;6.50;;
209;SDS011;90;48.810;9.120;2022-10-18T03:46:08;8.93;;;5.17;;
209;SDS011;90;48.810;9.120;2022-10-18T03:48:35;10.30;;;4.97;;
209;SDS011;90;48.810;9.120;2022-10-18T03:51:04;5.90;;;5.30;;
209;SDS011;90;48.810;9.120;2022-10-18T03:53:32;6.20;;;5.90;;
209;SDS011;90;48.810;9.120;2022-10-18T03:55:59;6.63;;;5.90;;
209;SDS011;90;48.810;9.120;2022-10-18T03:58:26;5.80;;;5.50;;
209;SDS011;90;48.810;9.120;2022-10-18T04:00:55;11.30;;;5.27;;
209;SDS011;90;48.810;9.120;2022-10-18T04:03:22;7.90;;;5.83;;
209;SDS011;90;48.810;9.120;2022-10-18T04:05:49;5.47;;;5.17;;
209;SDS011;90;48.810;9.120;2022-10-18T04:08:16;7.73;;;6.07;;
209;SDS011;90;48.810;9.120;2022-10-18T04:10:44;10.93;;;5.47;;
209;SDS011;90;48.810;9.120;2022-10-18T04:13:11;6.23;;;5.30;;
209;SDS011;90;48.810;9.120;2022-10-18T04:15:39;6.20;;;5.60;;
209;SDS011;90;48.810;9.120;2022-10-18T04:18:07;9.43;;;6.73;;
209;SDS011;90;48.810;9.120;2022-10-18T04:20:37;9.60;;;6.60;;
209;SDS011;90;48.810;9.120;2022-10-18T04:23:04;7.83;;;6.60;;
209;SDS011;90;48.810;9.120;2022-10-18T04:25:32;7.50;;;6.40;;
209;SDS011;90;48.810;9.120;2022-10-18T04:27:59;6.47;;;5.80;;
209;SDS011;90;48.810;9.120;2022-10-18T04:30:26;8.90;;;6.13;;
209;SDS011;90;48.810;9.120;2022-10-18T04:32:53;8.73;;;5.73;;
209;SDS011;90;48.810;9.120;2022-10-18T04:35:21;6.67;;;6.30;;
209;SDS011;90;48.810;9.120;2022-10-18T04:37:50;9.40;;;5.10;;
209;SDS011;90;48.810;9.120;2022-10-18T04:40:17;6.07;;;5.53;;
209;SDS011;90;48.810;9.120;2022-10-18T04:42:47;6.27;;;5.93;;
209;SDS011;90;48.810;9.120;2022-10-18T04:45:14;7.10;;;5.50;;
209;SDS011;90;48.810;9.120;2022-10-18T04:47:44;6.67;;;6.00;;
209;SDS011;90;48.810;9.120;2022-10-18T04:50:11;7.50;;;5.97;;
209;SDS011;90;48.810;9.120;2022-10-18T04:52:41;11.00;;;5.63;;
209;SDS011;90;48.810;9.120;2022-10-18T04:55:08;9.33;;;6.20;;
209;SDS011;90;48.810;9.120;2022-10-18T04:57:36;8.50;;;5.93;;
209;SDS011;90;48.810;9.120;2022-10-18T05:00:06;8.23;;;6.10;;
209;SDS011;90;48.810;9.120;2022-10-18T05:02:33;5.97;;;5.60;;
209;SDS011;90;48.810;9.120;2022-10-18T05:05:01;8.70;;;6.07;;
209;SDS011;90;48.810;9.120;2022-10-18T05:07:28;12.03;;;6.03;;
209;SDS011;90;48.810;9.120;2022-10-18T05:09:56;8.63;;;6.30;;
209;SDS011;90;48.810;9.120;2022-10-18T05:12:24;16.67;;;6.70;;
209;SDS011;90;48.810;9.120;2022-10-18T05:14:51;9.33;;;6.37;;
209;SDS011;90;48.810;9.120;2022-10-18T05:17:20;8.77;;;6.80;;
209;SDS011;90;48.810;9.120;2022-10-18T05:19:47;6.70;;;6.37;;
209;SDS011;90;48.810;9.120;2022-10-18T05:22:15;6.30;;;5.90;;
209;SDS011;90;48.810;9.120;2022-10-18T05:24:43;5.63;;;5.03;;
209;SDS011;90;48.810;9.120;2022-10-18T05:27:11;6.47;;;6.07;;
209;SDS011;90;48.810;9.120;2022-10-18T05:29:38;9.13;;;6.77;;
209;SDS011;90;48.810;9.120;2022-10-18T05:32:05;7.80;;;5.60;;
209;SDS011;90;48.810;9.120;2022-10-18T05:34:34;12.77;;;6.80;;
209;SDS011;90;48.810;9.120;2022-10-18T05:37:01;10.73;;;6.30;;
209;SDS011;90;48.810;9.120;2022-10-18T05:39:29;8.40;;;6.00;;
209;SDS011;90;48.810;9.120;2022-10-18T05:41:56;11.03;;;6.77;;
209;SDS011;90;48.810;9.120;2022-10-18T05:44:25;7.38;;;6.00;;
209;SDS011;90;48.810;9.120;2022-10-18T05:46:55;6.93;;;6.53;;
209;SDS011;90;48.810;9.120;2022-10-18T05:49:22;7.30;;;6.90;;
209;SDS011;90;48.810;9.120;2022-10-18T05:51:49;7.93;;;6.80;;
209;SDS011;90;48.810;9.120;2022-10-18T05:54:16;9.80;;;6.63;;
209;SDS011;90;48.810;9.120;2022-10-18T05:56:45;6.83;;;6.00;;
209;SDS011;90;48.810;9.120;2022-10-18T05:59:12;12.50;;;6.23;;
209;SDS011;90;48.810;9.120;2022-10-18T06:01:41;6.43;;;6.03;;
209;SDS011;90;48.810;9.120;2022-10-18T06:04:10;7.70;;;6.70;;
209;SDS011;90;48.810;9.120;2022-10-18T06:06:38;7.60;;;6.40;;
209;SDS011;90;48.810;9.120;2022-10-18T06:09:05;12.80;;;6.40;;
209;SDS011;90;48.810;9.120;2022-10-18T06:11:33;6.70;;;6.30;;
209;SDS011;90;48.810;9.120;2022-10-18T06:14:02;10.70;;;6.00;;
209;SDS011;90;48.810;9.120;2022-10-18T06:16:29;13.30;;;6.67;;
209;SDS011;90;48.810;9.120;2022-10-18T06:18:58;6.43;;;6.03;;
209;SDS011;90;48.810;9.120;2022-10-18T06:21:25;6.50;;;5.67;;
209;SDS011;90;48.810;9.120;2022-10-18T06:23:53;8.17;;;5.80;;
209;SDS011;90;48.810;9.120;2022-10-18T06:26:21;7.80;;;6.20;;
209;SDS011;90;48.810;9.120;2022-10-18T06:28:49;9.23;;;6.30;;
209;SDS011;90;48.810;9.120;2022-10-18T06:31:16;8.30;;;6.83;;
209;SDS011;90;48.810;9.120;2022-10-18T06:33:45;11.10;;;7.37;;
209;SDS011;90;48.810;9.120;2022-10-18T06:36:17;7.53;;;6.30;;
209;SDS011;90;48.810;9.120;2022-10-18T06:38:52;7.13;;;6.40;;
209;SDS011;90;48.810;9.120;2022-10-18T06:41:20;9.70;;;5.60;;
209;SDS011;90;48.810;9.120;2022-10-18T06:43:48;8.33;;;6.33;;
209;SDS011;90;48.810;9.120;2022-10-18T06:46:17;7.93;;;6.03;;
209;SDS011;90;48.810;9.120;2022-10-18T06:48:44;7.33;;;6.83;;
209;SDS011;90;48.810;9.120;2022-10-18T06:51:12;7.63;;;5.65;;
209;SDS011;90;48.810;9.120;2022-10-18T06:53:40;8.37;;;5.80;;
209;SDS011;90;48.810;9.120;2022-10-18T06:56:10;9.50;;;6.70;;
209;SDS011;90;48.810;9.120;2022-10-18T06:58:40;8.10;;;6.47;;
209;SDS011;90;48.810;9.120;2022-10-18T07:01:08;7.00;;;6.00;;
209;SDS011;90;48.810;9.120;2022-10-18T07:03:36;15.53;;;7.07;;
209;SDS011;90;48.810;9.120;2022-10-18T07:06:04;7.80;;;6.73;;
209;SDS011;90;48.810;9.120;2022-10-18T07:08:34;9.40;;;6.03;;
209;SDS011;90;48.810;9.120;2022-10-18T07:11:03;7.17;;;5.97;;
209;SDS011;90;48.810;9.120;2022-10-18T07:13:31;6.67;;;5.70;;
209;SDS011;90;48.810;9.120;2022-10-18T07:16:03;9.63;;;5.90;;
209;SDS011;90;48.810;9.120;2022-10-18T07:18:41;6.50;;;6.17;;
209;SDS011;90;48.810;9.120;2022-10-18T07:21:10;6.17;;;5.83;;
209;SDS011;90;48.810;9.120;2022-10-18T07:23:39;26.27;;;6.33;;
209;SDS011;90;48.810;9.120;2022-10-18T07:26:12;9.90;;;6.07;;
209;SDS011;90;48.810;9.120;2022-10-18T07:28:41;10.53;;;7.00;;
209;SDS011;90;48.810;9.120;2022-10-18T07:31:09;10.27;;;7.20;;
209;SDS011;90;48.810;9.120;2022-10-18T07:33:37;10.47;;;6.43;;
209;SDS011;90;48.810;9.120;2022-10-18T07:36:09;7.00;;;6.60;;
209;SDS011;90;48.810;9.120;2022-10-18T07:38:38;8.43;;;6.70;;
209;SDS011;90;48.810;9.120;2022-10-18T07:41:09;12.87;;;6.30;;
209;SDS011;90;48.810;9.120;2022-10-18T07:43:40;8.43;;;6.97;;
209;SDS011;90;48.810;9.120;2022-10-18T07:46:08;9.50;;;6.33;;
209;SDS011;90;48.810;9.120;2022-10-18T07:48:35;9.43;;;5.53;;
209;SDS011;90;48.810;9.120;2022-10-18T07:51:02;7.83;;;6.80;;
209;SDS011;90;48.810;9.120;2022-10-18T07:53:30;6.10;;;5.80;;
209;SDS011;90;48.810;9.120;2022-10-18T07:55:58;9.30;;;6.57;;
209;SDS011;90;48.810;9.120;2022-10-18T07:58:29;8.20;;;6.47;;
209;SDS011;90;48.810;9.120;2022-10-18T08:00:56;7.23;;;6.57;;
209;SDS011;90;48.810;9.120;2022-10-18T08:03:26;11.40;;;7.17;;
209;SDS011;90;48.810;9.120;2022-10-18T08:05:56;7.43;;;6.63;;
209;SDS011;90;48.810;9.120;2022-10-18T08:08:25;9.97;;;7.00;;
209;SDS011;90;48.810;9.120;2022-10-18T08:10:58;8.23;;;7.03;;
209;SDS011;90;48.810;9.120;2022-10-18T08:13:29;9.00;;;6.63;;
209;SDS011;90;48.810;9.120;2022-10-18T08:16:00;8.53;;;6.03;;
209;SDS011;90;48.810;9.120;2022-10-18T08:18:31;8.63;;;6.67;;
209;SDS011;90;48.810;9.120;2022-10-18T08:20:58;7.50;;;6.10;;
209;SDS011;90;48.810;9.120;2022-10-18T08:23:26;8.70;;;6.40;;
209;SDS011;90;48.810;9.120;2022-10-18T08:25:53;11.67;;;6.73;;
209;SDS011;90;48.810;9.120;2022-10-18T08:28:21;9.37;;;7.60;;
209;SDS011;90;48.810;9.120;2022-10-18T08:30:49;19.20;;;6.83;;
209;SDS011;90;48.810;9.120;2022-10-18T08:33:16;8.53;;;6.83;;
209;SDS011;90;48.810;9.120;2022-10-18T08:35:53;10.50;;;7.30;;
209;SDS011;90;48.810;9.120;2022-10-18T08:38:24;10.63;;;6.83;;
209;SDS011;90;48.810;9.120;2022-10-18T08:40:56;8.73;;;6.60;;
209;SDS011;90;48.810;9.120;2022-10-18T08:43:26;8.80;;;6.30;;
209;SDS011;90;48.810;9.120;2022-10-18T08:46:07;10.03;;;6.63;;
209;SDS011;90;48.810;9.120;2022-10-18T08:48:40;18.17;;;7.75;;
209;SDS011;90;48.810;9.120;2022-10-18T08:51:11;8.03;;;6.90;;
209;SDS011;90;48.810;9.120;2022-10-18T08:53:50;10.63;;;7.30;;
209;SDS011;90;48.810;9.120;2022-10-18T08:56:24;15.73;;;7.40;;
209;SDS011;90;48.810;9.120;2022-10-18T08:58:52;8.80;;;6.70;;
209;SDS011;90;48.810;9.120;2022-10-18T09:01:25;8.00;;;7.30;;
209;SDS011;90;48.810;9.120;2022-10-18T09:04:13;12.57;;;7.80;;
209;SDS011;90;48.810;9.120;2022-10-18T09:06:51;8.40;;;7.23;;
209;SDS011;90;48.810;9.120;2022-10-18T09:09:32;17.33;;;7.50;;
209;SDS011;90;48.810;9.120;2022-10-18T09:12:08;9.77;;;7.30;;
209;SDS011;90;48.810;9.120;2022-10-18T09:14:54;11.30;;;8.00;;
209;SDS011;90;48.810;9.120;2022-10-18T09:17:36;8.77;;;7.43;;
209;SDS011;90;48.810;9.120;2022-10-18T09:20:22;12.37;;;6.83;;
209;SDS011;90;48.810;9.120;2022-10-18T09:22:54;9.70;;;7.43;;
209;SDS011;90;48.810;9.120;2022-10-18T09:25:24;13.60;;;7.73;;
209;SDS011;90;48.810;9.120;2022-10-18T09:28:06;11.70;;;7.80;;
209;SDS011;90;48.810;9.120;2022-10-18T09:30:43;7.10;;;6.70;;
209;SDS011;90;48.810;9.120;2022-10-18T09:33:23;11.30;;;7.33;;
209;SDS011;90;48.810;9.120;2022-10-18T09:36:00;11.13;;;7.87;;
209;SDS011;90;48.810;9.120;2022-10-18T09:38:40;9.90;;;7.97;;
209;SDS011;90;48.810;9.120;2022-10-18T09:41:11;15.37;;;8.10;;
209;SDS011;90;48.810;9.120;2022-10-18T09:43:46;8.90;;;7.53;;
209;SDS011;90;48.810;9.120;2022-10-18T09:46:16;27.10;;;8.00;;
209;SDS011;90;48.810;9.120;2022-10-18T09:48:49;21.37;;;8.30;;
209;SDS011;90;48.810;9.120;2022-10-18T09:51:21;13.10;;;7.60;;
209;SDS011;90;48.810;9.120;2022-10-18T09:54:13;12.70;;;7.60;;
209;SDS011;90;48.810;9.120;2022-10-18T09:56:47;21.03;;;7.73;;
209;SDS011;90;48.810;9.120;2022-10-18T09:59:23;12.90;;;7.97;;
209;SDS011;90;48.810;9.120;2022-10-18T10:02:05;9.10;;;7.50;;
209;SDS011;90;48.810;9.120;2022-10-18T10:04:36;12.77;;;7.37;;
209;SDS011;90;48.810;9.120;2022-10-18T10:07:03;11.17;;;7.17;;
209;SDS011;90;48.810;9.120;2022-10-18T10:09:36;14.13;;;7.20;;
209;SDS011;90;48.810;9.120;2022-10-18T10:12:23;10.10;;;7.07;;
209;SDS011;90;48.810;9.120;2022-10-18T10:15:05;13.37;;;8.17;;
209;SDS011;90;48.810;9.120;2022-10-18T10:17:34;11.20;;;6.70;;
209;SDS011;90;48.810;9.120;2022-10-18T10:20:13;8.93;;;7.20;;
209;SDS011;90;48.810;9.120;2022-10-18T10:22:43;7.93;;;7.10;;
209;SDS011;90;48.810;9.120;2022-10-18T10:25:20;18.83;;;8.90;;
209;SDS011;90;48.810;9.120;2022-10-18T10:27:50;11.97;;;7.63;;
209;SDS011;90;48.810;9.120;2022-10-18T10:30:22;9.97;;;7.00;;
209;SDS011;90;48.810;9.120;2022-10-18T10:32:53;11.70;;;7.87;;
209;SDS011;90;48.810;9.120;2022-10-18T10:35:30;14.90;;;7.20;;
209;SDS011;90;48.810;9.120;2022-10-18T10:37:59;7.07;;;6.67;;
209;SDS011;90;48.810;9.120;2022-10-18T10:40:27;6.87;;;6.13;;
209;SDS011;90;48.810;9.120;2022-10-18T10:42:59;15.83;;;9.67;;
209;SDS011;90;48.810;9.120;2022-10-18T10:45:30;11.40;;;8.53;;
209;SDS011;90;48.810;9.120;2022-10-18T10:48:04;8.97;;;8.10;;
209;SDS011;90;48.810;9.120;2022-10-18T10:50:48;11.23;;;7.90;;
209;SDS011;90;48.810;9.120;2022-10-18T10:53:23;14.40;;;8.00;;
209;SDS011;90;48.810;9.120;2022-10-18T10:56:00;15.57;;;7.57;;
209;SDS011;90;48.810;9.120;2022-10-18T10:58:33;12.93;;;8.00;;
209;SDS011;90;48.810;9.120;2022-10-18T11:01:16;40.87;;;16.80;;
209;SDS011;90;48.810;9.120;2022-10-18T11:03:46;28.87;;;13.30;;
209;SDS011;90;48.810;9.120;2022-10-18T11:06:28;23.27;;;12.23;;
209;SDS011;90;48.810;9.120;2022-10-18T11:09:09;36.73;;;15.53;;
209;SDS011;90;48.810;9.120;2022-10-18T11:12:01;50.60;;;20.00;;
209;SDS011;90;48.810;9.120;2022-10-18T11:14:38;44.43;;;20.53;;
209;SDS011;90;48.810;9.120;2022-10-18T11:17:17;37.63;;;16.67;;
209;SDS011;90;48.810;9.120;2022-10-18T11:19:55;37.00;;;16.00;;
209;SDS011;90;48.810;9.120;2022-10-18T11:22:37;29.20;;;14.30;;
209;SDS011;90;48.810;9.120;2022-10-18T11:25:08;28.37;;;14.03;;
209;SDS011;90;48.810;9.120;2022-10-18T11:27:39;20.87;;;11.80;;
209;SDS011;90;48.810;9.120;2022-10-18T11:30:15;30.60;;;10.70;;
209;SDS011;90;48.810;9.120;2022-10-18T11:32:54;15.20;;;9.70;;
209;SDS011;90;48.810;9.120;2022-10-18T11:35:33;20.80;;;10.00;;
209;SDS011;90;48.810;9.120;2022-10-18T11:38:13;23.27;;;10.00;;
209;SDS011;90;48.810;9.120;2022-10-18T11:40:51;14.80;;;8.23;;
209;SDS011;90;48.810;9.120;2022-10-18T11:43:29;15.90;;;8.50;;
209;SDS011;90;48.810;9.120;2022-10-18T11:46:04;11.80;;;8.47;;
209;SDS011;90;48.810;9.120;2022-10-18T11:48:48;18.13;;;8.20;;
209;SDS011;90;48.810;9.120;2022-10-18T11:51:27;12.17;;;6.80;;
209;SDS011;90;48.810;9.120;2022-10-18T11:54:17;11.33;;;5.63;;
209;SDS011;90;48.810;9.120;2022-10-18T11:57:05;6.57;;;5.97;;
209;SDS011;90;48.810;9.120;2022-10-18T11:59:42;5.73;;;5.33;;
209;SDS011;90;48.810;9.120;2022-10-18T12:02:23;14.57;;;6.10;;
209;SDS011;90;48.810;9.120;2022-10-18T12:05:12;14.70;;;5.63;;
209;SDS011;90;48.810;9.120;2022-10-18T12:07:41;9.17;;;5.30;;
209;SDS011;90;48.810;9.120;2022-10-18T12:10:15;5.70;;;4.70;;
209;SDS011;90;48.810;9.120;2022-10-18T12:12:47;6.33;;;5.30;;
209;SDS011;90;48.810;9.120;2022-10-18T12:15:17;6.53;;;6.13;;
209;SDS011;90;48.810;9.120;2022-10-18T12:17:46;7.15;;;5.32;;
209;SDS011;90;48.810;9.120;2022-10-18T12:20:20;10.93;;;6.00;;
209;SDS011;90;48.810;9.120;2022-10-18T12:22:54;6.20;;;5.80;;
209;SDS011;90;48.810;9.120;2022-10-18T12:25:28;9.77;;;6.10;;
209;SDS011;90;48.810;9.120;2022-10-18T12:28:00;5.77;;;5.47;;
209;SDS011;90;48.810;9.120;2022-10-18T12:30:39;6.00;;;5.70;;
209;SDS011;90;48.810;9.120;2022-10-18T12:33:18;8.73;;;5.30;;
209;SDS011;90;48.810;9.120;2022-10-18T12:35:53;9.60;;;5.00;;
209;SDS011;90;48.810;9.120;2022-10-18T12:38:34;5.07;;;4.77;;
209;SDS011;90;48.810;9.120;2022-10-18T12:41:06;6.40;;;4.83;;
209;SDS011;90;48.810;9.120;2022-10-18T12:43:49;12.47;;;5.90;;
209;SDS011;90;48.810;9.120;2022-10-18T12:46:20;7.10;;;6.70;;
209;SDS011;90;48.810;9.120;2022-10-18T12:49:02;9.10;;;7.10;;
209;SDS011;90;48.810;9.120;2022-10-18T12:51:49;11.23;;;7.60;;
209;SDS011;90;48.810;9.120;2022-10-18T12:54:21;8.03;;;7.57;;
209;SDS011;90;48.810;9.120;2022-10-18T12:57:22;16.80;;;7.20;;
209;SDS011;90;48.810;9.120;2022-10-18T12:59:49;8.17;;;7.30;;
209;SDS011;90;48.810;9.120;2022-10-18T13:11:27;6.33;;;5.90;;
209;SDS011;90;48.810;9.120;2022-10-18T13:14:14;7.47;;;5.97;;
209;SDS011;90;48.810;9.120;2022-10-18T13:17:05;6.23;;;5.80;;
209;SDS011;90;48.810;9.120;2022-10-18T13:19:50;4.67;;;4.20;;
209;SDS011;90;48.810;9.120;2022-10-18T13:22:39;8.47;;;4.53;;
209;SDS011;90;48.810;9.120;2022-10-18T13:25:23;7.43;;;4.73;;
209;SDS011;90;48.810;9.120;2022-10-18T13:27:56;6.43;;;4.20;;
209;SDS011;90;48.810;9.120;2022-10-18T13:30:41;5.40;;;4.57;;
209;SDS011;90;48.810;9.120;2022-10-18T13:33:24;5.07;;;4.50;;
209;SDS011;90;48.810;9.120;2022-10-18T13:35:59;4.07;;;3.70;;
209;SDS011;90;48.810;9.120;2022-10-18T13:38:35;3.90;;;3.70;;
209;SDS011;90;48.810;9.120;2022-10-18T13:41:09;9.97;;;5.23;;
209;SDS011;90;48.810;9.120;2022-10-18T13:43:47;9.03;;;5.43;;
209;SDS011;90;48.810;9.120;2022-10-18T13:50:08;9.90;;;5.73;;
209;SDS011;90;48.810;9.120;2022-10-18T13:59:04;6.17;;;5.90;;
209;SDS011;90;48.810;9.120;2022-10-18T14:01:47;10.07;;;6.63;;
209;SDS011;90;48.810;9.120;2022-10-18T14:07:14;8.97;;;6.80;;
209;SDS011;90;48.810;9.120;2022-10-18T14:09:45;12.50;;;7.67;;
209;SDS011;90;48.810;9.120;2022-10-18T14:12:17;10.00;;;7.67;;
209;SDS011;90;48.810;9.120;2022-10-18T14:15:01;22.13;;;7.80;;
209;SDS011;90;48.810;9.120;2022-10-18T14:17:37;10.60;;;6.77;;
209;SDS011;90;48.810;9.120;2022-10-18T14:20:19;11.23;;;6.90;;
209;SDS011;90;48.810;9.120;2022-10-18T14:22:51;8.03;;;6.80;;
209;SDS011;90;48.810;9.120;2022-10-18T14:25:25;9.60;;;6.90;;
209;SDS011;90;48.810;9.120;2022-10-18T14:28:10;9.07;;;6.73;;
209;SDS011;90;48.810;9.120;2022-10-18T14:33:29;16.30;;;6.60;;
209;SDS011;90;48.810;9.120;2022-10-18T14:36:02;19.03;;;7.00;;
209;SDS011;90;48.810;9.120;2022-10-18T14:38:33;9.83;;;7.23;;
209;SDS011;90;48.810;9.120;2022-10-18T14:41:06;10.03;;;6.70;;
209;SDS011;90;48.810;9.120;2022-10-18T14:43:43;7.40;;;6.80;;
209;SDS011;90;48.810;9.120;2022-10-18T14:46:20;8.80;;;7.10;;
209;SDS011;90;48.810;9.120;2022-10-18T14:48:54;12.53;;;7.03;;
209;SDS011;90;48.810;9.120;2022-10-18T14:51:25;7.00;;;6.60;;
209;SDS011;90;48.810;9.120;2022-10-18T14:53:54;13.70;;;6.77;;
209;SDS011;90;48.810;9.120;2022-10-18T14:56:23;9.73;;;5.43;;
209;SDS011;90;48.810;9.120;2022-10-18T14:58:52;7.73;;;6.30;;
209;SDS011;90;48.810;9.120;2022-10-18T15:01:21;5.87;;;5.57;;
209;SDS011;90;48.810;9.120;2022-10-18T15:03:54;6.40;;;5.70;;
209;SDS011;90;48.810;9.120;2022-10-18T15:06:22;7.70;;;6.93;;
209;SDS011;90;48.810;9.120;2022-10-18T15:08:52;10.70;;;6.80;;
209;SDS011;90;48.810;9.120;2022-10-18T15:11:23;15.73;;;6.70;;
209;SDS011;90;48.810;9.120;2022-10-18T15:13:52;9.03;;;6.60;;
209;SDS011;90;48.810;9.120;2022-10-18T15:16:27;9.50;;;5.95;;
209;SDS011;90;48.810;9.120;2022-10-18T15:19:01;7.83;;;6.27;;
209;SDS011;90;48.810;9.120;2022-10-18T15:21:32;7.23;;;6.40;;
209;SDS011;90;48.810;9.120;2022-10-18T15:26:57;7.40;;;7.00;;
209;SDS011;90;48.810;9.120;2022-10-18T15:29:36;13.25;;;6.20;;
209;SDS011;90;48.810;9.120;2022-10-18T15:32:03;9.40;;;7.80;;
209;SDS011;90;48.810;9.120;2022-10-18T15:34:38;7.57;;;7.17;;
209;SDS011;90;48.810;9.120;2022-10-18T15:37:15;9.77;;;7.70;;
209;SDS011;90;48.810;9.120;2022-10-18T15:42:42;7.47;;;7.03;;
209;SDS011;90;48.810;9.120;2022-10-18T15:45:29;14.50;;;8.30;;
209;SDS011;90;48.810;9.120;2022-10-18T15:48:16;14.70;;;6.93;;
209;SDS011;90;48.810;9.120;2022-10-18T15:50:47;8.53;;;7.47;;
209;SDS011;90;48.810;9.120;2022-10-18T15:56:25;11.93;;;7.83;;
209;SDS011;90;48.810;9.120;2022-10-18T15:58:56;10.60;;;7.03;;
209;SDS011;90;48.810;9.120;2022-10-18T16:01:27;7.27;;;6.90;;
209;SDS011;90;48.810;9.120;2022-10-18T16:03:59;9.63;;;8.10;;
209;SDS011;90;48.810;9.120;2022-10-18T16:06:30;7.80;;;7.17;;
209;SDS011;90;48.810;9.120;2022-10-18T16:09:04;11.50;;;7.87;;
209;SDS011;90;48.810;9.120;2022-10-18T16:11:31;11.90;;;8.40;;
209;SDS011;90;48.810;9.120;2022-10-18T16:14:00;17.27;;;8.40;;
209;SDS011;90;48.810;9.120;2022-10-18T16:16:28;12.47;;;8.20;;
209;SDS011;90;48.810;9.120;2022-10-18T16:18:55;10.10;;;8.30;;
209;SDS011;90;48.810;9.120;2022-10-18T16:21:28;12.68;;;7.60;;
209;SDS011;90;48.810;9.120;2022-10-18T16:23:58;9.73;;;7.70;;
209;SDS011;90;48.810;9.120;2022-10-18T16:26:27;8.83;;;7.67;;
209;SDS011;90;48.810;9.120;2022-10-18T16:28:55;10.33;;;7.63;;
209;SDS011;90;48.810;9.120;2022-10-18T16:31:24;8.77;;;7.53;;
209;SDS011;90;48.810;9.120;2022-10-18T16:33:52;9.47;;;7.70;;
209;SDS011;90;48.810;9.120;2022-10-18T16:36:21;8.43;;;7.97;;
209;SDS011;90;48.810;9.120;2022-10-18T16:38:50;10.63;;;8.43;;
209;SDS011;90;48.810;9.120;2022-10-18T16:41:19;11.07;;;9.10;;
209;SDS011;90;48.810;9.120;2022-10-18T16:43:48;16.77;;;9.17;;
209;SDS011;90;48.810;9.120;2022-10-18T16:46:17;9.03;;;8.43;;
209;SDS011;90;48.810;9.120;2022-10-18T16:48:49;12.57;;;8.40;;
209;SDS011;90;48.810;9.120;2022-10-18T16:51:19;9.97;;;8.47;;
209;SDS011;90;48.810;9.120;2022-10-18T16:53:49;11.00;;;8.50;;
209;SDS011;90;48.810;9.120;2022-10-18T16:56:18;10.53;;;8.57;;
209;SDS011;90;48.810;9.120;2022-10-18T16:58:48;11.93;;;7.67;;
209;SDS011;90;48.810;9.120;2022-10-18T17:01:17;11.30;;;9.00;;
209;SDS011;90;48.810;9.120;2022-10-18T17:03:45;12.83;;;9.30;;